• Join FlightAware (Why Join?)
  • Login
  • US Flag 
Rudolph Flight #1: Arrived! 
07:16PM EST


 

Airport Tracker/Info


-or-


 

Live Flight TrackerFlight Track Log ✈ DAL1072 ✈ 22-May-2012 ✈ KSRQ - KATL

Flight Track Log - Related Links

Times and Time Zones

All times are in EDT time to prevent confusion due to time zone crossing. See the DAL1072 flight status page for this flight to view local times or setup timezone preferences in your user account.

Time Position Orientation Groundspeed Altitude Reporting Facility
EDT Latitude Longitude Course Direction KTS MPH feet Rate Location/Type
06:44PM 27.4167 -82.5667 254° West 178 205 1,400  Level Tampa TRACON
06:45PM 27.4000 -82.6333 289° West 253 291 3,000 2,220 Climbing Tampa TRACON
06:46PM 27.4278 -82.7242 318° Northwest 219 252 6,300 3,000 Climbing Miami Center
06:47PM 27.4878 -82.7856 355° North 249 287 9,500 2,400 Climbing Miami Center
06:48PM 27.5731 -82.7947 338° Northwest 269 310 11,200 540 Climbing Miami Center
07:27PM 31.7361 -84.7908 354° North 441 507 31,300 420 Climbing Atlanta Center
07:28PM 31.8611 -84.8067 345° North 441 507 29,700 -1,620 Descending Atlanta Center
07:29PM 31.9797 -84.8444 345° North 446 513 28,100 -1,620 Descending Atlanta Center
07:30PM 32.1047 -84.8847 344° North 433 498 26,500 -1,500 Descending Atlanta Center
07:31PM 32.2236 -84.9253 345° North 427 491 25,100 -1,260 Descending Atlanta Center
07:32PM 32.3381 -84.9608 360° North 436 502 24,000 -600 Descending Atlanta Center
07:33PM 32.4569 -84.9619 North 426 490 24,000 -240 Level Atlanta Center
07:34PM 32.5761 -84.9483 North 426 490 23,600 -900 Descending Atlanta Center
07:35PM 32.6911 -84.9347 North 421 484 22,300 -1,620 Descending Atlanta Center
07:36PM 32.7997 -84.9261 North 402 463 20,400 -2,160 Descending Atlanta Center
07:37PM 32.9061 -84.9147 North 382 440 18,000 -2,400 Descending Atlanta Center
07:38PM 33.0128 -84.9008 19° North 382 440 15,600 -1,920 Descending Atlanta Center
07:39PM 33.1089 -84.8622 20° North 365 420 14,200 -840 Descending Atlanta Center
07:40PM 33.1947 -84.8258 20° North 365 420 14,000 -600 Descending Atlanta Center
07:41PM 33.2889 -84.7844 20° North 360 414 13,000 -1,020 Descending Atlanta Center
07:42PM 33.3811 -84.7453 40° Northeast 353 406 12,000 -540 Descending Atlanta Center
07:43PM 33.4567 -84.6689 48° Northeast 348 400 12,000 -60 Level Atlanta Center
07:44PM 33.5239 -84.5794 73° East 348 400 11,900 -300 Descending Atlanta Center
07:45PM 33.5472 -84.4900 89° East 304 350 11,500 -1,140 Descending Atlanta Center
07:46PM 33.5500 -84.3167 90° East 253 291 8,800 -1,620 Descending Atlanta TRACON
07:47PM 33.5500 -84.2333 73° East 245 282 7,000 -1,740 Descending Atlanta TRACON
07:48PM 33.5667 -84.1667 360° North 230 265 5,400 -1,260 Descending Atlanta TRACON
07:49PM 33.6167 -84.1667 248° West 192 221 4,500 -840 Descending Atlanta TRACON
07:50PM 33.6000 -84.2167 253° West 189 217 3,800 -900 Descending Atlanta TRACON
07:51PM 33.5833 -84.2833 301° West 183 211 2,700 -660 Descending Atlanta TRACON
07:52PM 33.6000 -84.3167 292° West 157 181 2,500 -540 Descending Atlanta TRACON
07:53PM 33.6167 -84.3667 292° West 151 174 1,700 -840 Descending Atlanta TRACON
08:02PM 33.6333 -84.4167 292° West  Level FlightAware Approximate